Time;durP1;ratioP1;P1;durP2;ratioP2;P2;SDS_P1;SDS_P2;PMS_P1;PMS_P2;Temp;Humidity;BMP_temperature;BMP_pressure;BME280_temperature;BME280_humidity;BME280_pressure;Samples;Min_cycle;Max_cycle;Signal;HPM_P1;HPM_P2
2024/03/24 00:01:26;;;;;;;4.57;3.22;;;;;;;;;;5006379;28;20021;-74
2024/03/24 00:03:51;;;;;;;3.10;2.90;;;;;;;;;;5006544;28;20042;-74
2024/03/24 00:06:17;;;;;;;2.03;1.30;;;;;;;;;;5006153;28;20042;-74
2024/03/24 00:08:42;;;;;;;1.67;1.55;;;;;;;;;;5006334;28;20041;-74
2024/03/24 00:11:08;;;;;;;2.78;2.45;;;;;;;;;;5002930;28;20505;-74
2024/03/24 00:13:33;;;;;;;2.97;2.78;;;;;;;;;;5006893;28;20065;-75
2024/03/24 00:15:58;;;;;;;2.13;1.63;;;;;;;;;;5007537;28;20516;-75
2024/03/24 00:18:24;;;;;;;2.10;1.77;;;;;;;;;;5007263;28;21182;-75
2024/03/24 00:20:49;;;;;;;0.60;0.57;;;;;;;;;;5008255;28;20044;-75
2024/03/24 00:23:15;;;;;;;0.90;0.57;;;;;;;;;;5006355;28;20042;-74
2024/03/24 00:25:41;;;;;;;1.52;1.30;;;;;;;;;;5006589;28;20076;-75
2024/03/24 00:28:06;;;;;;;1.50;1.40;;;;;;;;;;5008385;28;20068;-74
2024/03/24 00:30:32;;;;;;;4.97;3.10;;;;;;;;;;5006321;28;20053;-74
2024/03/24 00:32:57;;;;;;;0.75;0.70;;;;;;;;;;5005007;28;20410;-74
2024/03/24 00:35:23;;;;;;;1.05;0.95;;;;;;;;;;5007441;28;20066;-75
2024/03/24 00:37:49;;;;;;;5.32;4.90;;;;;;;;;;5003183;28;20043;-74
2024/03/24 00:40:14;;;;;;;2.03;1.90;;;;;;;;;;5006504;28;20021;-75
2024/03/24 00:42:40;;;;;;;0.82;0.82;;;;;;;;;;5002197;28;20618;-75
2024/03/24 00:45:07;;;;;;;0.20;0.20;;;;;;;;;;5002896;28;20038;-75
2024/03/24 00:47:33;;;;;;;4.97;4.57;;;;;;;;;;5003244;28;20583;-73
2024/03/24 00:49:58;;;;;;;0.30;0.30;;;;;;;;;;4999425;28;20054;-74
2024/03/24 00:52:24;;;;;;;0.30;0.30;;;;;;;;;;5003685;28;20084;-74
2024/03/24 00:54:49;;;;;;;4.45;2.58;;;;;;;;;;5002148;28;20784;-77
2024/03/24 00:57:14;;;;;;;2.53;1.42;;;;;;;;;;5001331;28;20127;-75
2024/03/24 00:59:40;;;;;;;1.88;1.30;;;;;;;;;;4998783;28;20541;-74
2024/03/24 01:02:06;;;;;;;1.02;1.00;;;;;;;;;;5004511;28;20049;-74
2024/03/24 01:04:31;;;;;;;0.30;0.30;;;;;;;;;;4997136;28;20029;-75
2024/03/24 01:06:56;;;;;;;0.60;0.60;;;;;;;;;;5002270;28;20030;-74
2024/03/24 01:09:22;;;;;;;0.28;0.28;;;;;;;;;;5002684;28;20037;-75
2024/03/24 01:11:47;;;;;;;0.30;0.30;;;;;;;;;;4999877;28;20054;-75
2024/03/24 01:14:13;;;;;;;5.47;1.88;;;;;;;;;;5000852;28;20062;-73
2024/03/24 01:16:38;;;;;;;1.77;1.67;;;;;;;;;;5001168;28;20117;-75
2024/03/24 01:19:03;;;;;;;0.52;0.50;;;;;;;;;;5004579;28;20780;-74
2024/03/24 01:21:29;;;;;;;0.30;0.30;;;;;;;;;;5002837;28;20045;-74
2024/03/24 01:23:54;;;;;;;2.75;2.45;;;;;;;;;;5002697;28;20056;-74
2024/03/24 01:26:19;;;;;;;0.30;0.30;;;;;;;;;;5002659;28;20046;-74
2024/03/24 01:28:45;;;;;;;10.38;3.38;;;;;;;;;;5001181;28;20029;-73
2024/03/24 01:31:10;;;;;;;1.75;1.63;;;;;;;;;;5004066;28;20486;-75
2024/03/24 01:33:35;;;;;;;3.38;3.13;;;;;;;;;;5001852;28;20157;-74
2024/03/24 01:36:01;;;;;;;0.40;0.40;;;;;;;;;;5001093;28;20053;-75
2024/03/24 01:38:26;;;;;;;4.82;2.97;;;;;;;;;;5002773;28;20468;-75
2024/03/24 01:40:52;;;;;;;0.30;0.30;;;;;;;;;;5005207;28;20391;-75
2024/03/24 01:43:17;;;;;;;0.20;0.20;;;;;;;;;;5005446;28;20026;-75
2024/03/24 01:45:46;;;;;;;4.72;2.40;;;;;;;;;;5005562;28;20042;-75
2024/03/24 01:48:11;;;;;;;2.10;1.95;;;;;;;;;;5005696;28;20042;-75
2024/03/24 01:50:36;;;;;;;3.38;3.08;;;;;;;;;;5000312;28;20042;-75
2024/03/24 01:53:02;;;;;;;0.30;0.30;;;;;;;;;;5002424;28;20057;-77
2024/03/24 01:55:27;;;;;;;0.35;0.35;;;;;;;;;;5006562;28;20017;-76
2024/03/24 01:57:53;;;;;;;2.40;1.75;;;;;;;;;;5002853;28;20029;-73
2024/03/24 02:00:18;;;;;;;0.30;0.30;;;;;;;;;;5003259;28;20625;-74
2024/03/24 02:02:44;;;;;;;0.47;0.47;;;;;;;;;;5004330;28;20508;-74
2024/03/24 02:05:09;;;;;;;0.30;0.30;;;;;;;;;;5003897;28;20046;-74
2024/03/24 02:07:36;;;;;;;7.28;2.75;;;;;;;;;;5003183;28;20057;-74
2024/03/24 02:10:03;;;;;;;2.33;1.98;;;;;;;;;;5005684;28;20037;-75
2024/03/24 02:12:28;;;;;;;2.00;1.83;;;;;;;;;;5004100;28;20049;-74
2024/03/24 02:14:53;;;;;;;3.33;2.47;;;;;;;;;;5002931;28;20140;-74
2024/03/24 02:17:19;;;;;;;0.95;0.95;;;;;;;;;;5004039;28;20030;-74
2024/03/24 02:19:44;;;;;;;0.40;0.40;;;;;;;;;;5000979;28;20636;-73
2024/03/24 02:22:09;;;;;;;17.55;13.02;;;;;;;;;;4997591;28;20117;-74
2024/03/24 02:24:35;;;;;;;2.42;2.25;;;;;;;;;;5000833;28;20045;-73
2024/03/24 02:27:00;;;;;;;2.10;1.58;;;;;;;;;;4980659;28;20051;-76
2024/03/24 02:29:26;;;;;;;0.40;0.40;;;;;;;;;;5000574;28;20410;-74
2024/03/24 02:31:52;;;;;;;1.85;1.45;;;;;;;;;;5000518;28;20046;-74
2024/03/24 02:34:17;;;;;;;0.22;0.22;;;;;;;;;;4998788;28;20037;-74
2024/03/24 02:36:43;;;;;;;6.35;4.20;;;;;;;;;;4999428;28;20042;-74
2024/03/24 02:39:08;;;;;;;1.67;1.67;;;;;;;;;;5001277;28;20050;-76
2024/03/24 02:41:34;;;;;;;0.82;0.82;;;;;;;;;;5001884;28;20042;-75
2024/03/24 02:44:00;;;;;;;1.38;1.27;;;;;;;;;;4997852;28;20038;-75
2024/03/24 02:46:25;;;;;;;2.20;1.95;;;;;;;;;;5005395;28;20064;-75
2024/03/24 02:48:51;;;;;;;1.45;1.35;;;;;;;;;;5000865;28;20740;-75
2024/03/24 02:51:16;;;;;;;0.85;0.85;;;;;;;;;;5000160;28;20814;-74
2024/03/24 02:53:41;;;;;;;0.30;0.30;;;;;;;;;;5005570;28;20050;-74
2024/03/24 02:56:09;;;;;;;2.60;2.40;;;;;;;;;;5001504;28;20516;-75
2024/03/24 02:58:34;;;;;;;1.52;1.52;;;;;;;;;;5001932;28;20064;-74
2024/03/24 03:01:01;;;;;;;0.25;0.25;;;;;;;;;;5004250;28;20088;-74
2024/03/24 03:03:26;;;;;;;3.78;3.50;;;;;;;;;;5004836;28;20124;-74
2024/03/24 03:05:52;;;;;;;1.38;1.27;;;;;;;;;;5005398;28;20684;-74
2024/03/24 03:08:17;;;;;;;0.25;0.25;;;;;;;;;;5002691;28;20041;-74
2024/03/24 03:10:43;;;;;;;0.40;0.40;;;;;;;;;;5007515;28;20022;-74
2024/03/24 03:13:08;;;;;;;4.25;3.95;;;;;;;;;;5006367;28;20040;-73
2024/03/24 03:15:35;;;;;;;0.28;0.28;;;;;;;;;;5003770;28;20195;-75
2024/03/24 03:18:00;;;;;;;2.15;2.05;;;;;;;;;;5007092;28;20045;-74
2024/03/24 03:20:26;;;;;;;0.40;0.40;;;;;;;;;;5007409;28;20037;-75
2024/03/24 03:22:51;;;;;;;0.45;0.45;;;;;;;;;;5007679;28;20042;-74
2024/03/24 03:25:17;;;;;;;3.03;2.90;;;;;;;;;;5008214;28;20061;-75
2024/03/24 03:27:44;;;;;;;0.75;0.75;;;;;;;;;;5007734;28;20050;-74
2024/03/24 03:30:09;;;;;;;5.88;5.63;;;;;;;;;;5006110;28;20084;-76
2024/03/24 03:32:35;;;;;;;4.78;4.30;;;;;;;;;;5006300;28;20096;-75
2024/03/24 03:35:00;;;;;;;11.30;10.23;;;;;;;;;;5003401;28;20091;-74
2024/03/24 03:37:26;;;;;;;3.40;1.90;;;;;;;;;;5005785;28;20028;-75
2024/03/24 03:39:51;;;;;;;1.60;1.50;;;;;;;;;;5003640;28;20547;-76
2024/03/24 03:42:17;;;;;;;1.25;1.15;;;;;;;;;;5005569;28;20037;-74
2024/03/24 03:44:43;;;;;;;1.60;1.50;;;;;;;;;;5004231;28;20034;-74
2024/03/24 03:47:09;;;;;;;0.22;0.22;;;;;;;;;;5005375;28;20545;-74
2024/03/24 03:49:34;;;;;;;0.40;0.40;;;;;;;;;;5007014;28;20056;-75
2024/03/24 03:52:00;;;;;;;9.45;6.38;;;;;;;;;;5005027;28;20026;-76
2024/03/24 03:54:26;;;;;;;0.22;0.22;;;;;;;;;;5003290;28;20054;-75
2024/03/24 03:56:51;;;;;;;11.73;10.50;;;;;;;;;;5007527;28;20037;-73
2024/03/24 03:59:17;;;;;;;2.53;2.42;;;;;;;;;;5007199;28;20065;-75
2024/03/24 04:01:42;;;;;;;0.57;0.57;;;;;;;;;;5006785;28;20018;-75
2024/03/24 04:04:11;;;;;;;1.38;1.27;;;;;;;;;;5011011;28;20026;-76
2024/03/24 04:06:36;;;;;;;0.88;0.88;;;;;;;;;;5004440;28;20058;-76
2024/03/24 04:09:02;;;;;;;3.95;3.75;;;;;;;;;;5014206;28;20077;-74
2024/03/24 04:11:28;;;;;;;1.95;1.65;;;;;;;;;;5012210;28;20054;-75
2024/03/24 04:13:53;;;;;;;39.78;32.78;;;;;;;;;;5007110;28;20058;-75
2024/03/24 04:16:19;;;;;;;2.78;2.63;;;;;;;;;;5014561;28;20174;-74
2024/03/24 04:18:47;;;;;;;3.50;3.25;;;;;;;;;;5011538;28;20493;-75
2024/03/24 04:21:12;;;;;;;15.30;8.18;;;;;;;;;;5002075;28;20053;-74
2024/03/24 04:23:38;;;;;;;1.38;0.60;;;;;;;;;;5005088;28;20410;-75
2024/03/24 04:26:04;;;;;;;0.57;0.57;;;;;;;;;;5007504;28;20129;-76
2024/03/24 04:28:30;;;;;;;1.20;1.10;;;;;;;;;;5006878;28;20109;-75
2024/03/24 04:30:55;;;;;;;1.02;0.98;;;;;;;;;;5006911;28;20041;-74
2024/03/24 04:33:20;;;;;;;1.52;1.48;;;;;;;;;;5004900;28;20060;-75
2024/03/24 04:35:47;;;;;;;0.85;0.85;;;;;;;;;;5006158;28;20037;-75
2024/03/24 04:38:13;;;;;;;1.70;1.60;;;;;;;;;;5006335;28;20564;-74
2024/03/24 04:40:38;;;;;;;1.25;1.15;;;;;;;;;;5006596;28;20072;-74
2024/03/24 04:43:05;;;;;;;0.40;0.40;;;;;;;;;;5008550;28;20034;-75
2024/03/24 04:45:31;;;;;;;2.58;2.47;;;;;;;;;;5004208;28;20038;-75
2024/03/24 04:47:56;;;;;;;7.38;6.97;;;;;;;;;;5002465;28;20064;-75
2024/03/24 04:50:22;;;;;;;2.15;2.05;;;;;;;;;;5003800;28;20046;-73
2024/03/24 04:52:47;;;;;;;1.05;1.00;;;;;;;;;;4996678;28;21360;-74
2024/03/24 04:55:13;;;;;;;0.57;0.52;;;;;;;;;;5006268;28;20109;-74
2024/03/24 04:57:38;;;;;;;1.38;1.27;;;;;;;;;;5004227;28;20033;-75
2024/03/24 05:00:07;;;;;;;1.95;1.33;;;;;;;;;;5002384;28;20045;-73
2024/03/24 05:02:33;;;;;;;7.75;4.47;;;;;;;;;;5005438;28;20037;-75
2024/03/24 05:04:58;;;;;;;2.25;2.15;;;;;;;;;;5005970;28;20618;-75
2024/03/24 05:07:24;;;;;;;0.60;0.60;;;;;;;;;;5008031;28;20026;-74
2024/03/24 05:09:49;;;;;;;0.75;0.75;;;;;;;;;;5004029;28;20431;-74
2024/03/24 05:12:14;;;;;;;0.38;0.38;;;;;;;;;;5006354;28;20045;-74
2024/03/24 05:14:40;;;;;;;0.30;0.30;;;;;;;;;;5005480;28;20685;-73
2024/03/24 05:17:05;;;;;;;3.92;3.00;;;;;;;;;;5004111;28;20042;-73
2024/03/24 05:19:32;;;;;;;0.50;0.50;;;;;;;;;;5002925;28;20026;-73
2024/03/24 05:21:58;;;;;;;0.28;0.28;;;;;;;;;;5007602;28;20025;-75
2024/03/24 05:24:23;;;;;;;2.95;1.45;;;;;;;;;;5001975;28;20038;-76
2024/03/24 05:26:48;;;;;;;0.40;0.40;;;;;;;;;;5003323;28;20092;-75
2024/03/24 05:29:14;;;;;;;0.20;0.20;;;;;;;;;;5000220;28;20042;-74
2024/03/24 05:31:42;;;;;;;0.30;0.30;;;;;;;;;;5003384;28;20691;-73
2024/03/24 05:34:09;;;;;;;1.60;0.90;;;;;;;;;;5003612;28;20097;-76
2024/03/24 05:36:34;;;;;;;2.28;2.17;;;;;;;;;;5001719;28;20539;-74
2024/03/24 05:39:00;;;;;;;0.32;0.32;;;;;;;;;;5002591;28;20050;-76
2024/03/24 05:41:25;;;;;;;2.97;2.78;;;;;;;;;;5002459;28;20036;-74
2024/03/24 05:43:50;;;;;;;0.28;0.28;;;;;;;;;;5004298;28;20056;-74
2024/03/24 05:46:16;;;;;;;9.48;7.22;;;;;;;;;;5002631;28;20055;-74
2024/03/24 05:48:42;;;;;;;0.40;0.40;;;;;;;;;;5003077;28;20521;-74
2024/03/24 05:51:07;;;;;;;3.47;3.22;;;;;;;;;;5002210;28;20508;-77
2024/03/24 05:53:33;;;;;;;2.47;1.85;;;;;;;;;;4998029;28;20058;-73
2024/03/24 05:56:02;;;;;;;3.08;2.47;;;;;;;;;;5002539;28;20077;-75
2024/03/24 05:58:27;;;;;;;0.30;0.30;;;;;;;;;;5001011;28;20052;-75
2024/03/24 06:00:53;;;;;;;0.20;0.20;;;;;;;;;;5000423;28;20713;-75
2024/03/24 06:03:18;;;;;;;1.38;1.08;;;;;;;;;;4998548;28;20042;-74
2024/03/24 06:05:46;;;;;;;20.83;4.07;;;;;;;;;;5001334;28;20044;-74
2024/03/24 06:08:11;;;;;;;1.40;0.95;;;;;;;;;;5004179;28;20042;-74
2024/03/24 06:10:37;;;;;;;1.17;1.08;;;;;;;;;;5000887;28;20258;-74
2024/03/24 06:13:02;;;;;;;2.38;0.40;;;;;;;;;;5001824;28;20045;-75
2024/03/24 06:15:28;;;;;;;4.53;2.00;;;;;;;;;;5002781;28;20040;-74
2024/03/24 06:17:53;;;;;;;0.32;0.32;;;;;;;;;;4995571;28;20986;-75
2024/03/24 06:20:19;;;;;;;0.30;0.30;;;;;;;;;;5001228;28;20081;-74
2024/03/24 06:22:44;;;;;;;1.63;1.45;;;;;;;;;;5003197;28;20137;-75
2024/03/24 06:25:10;;;;;;;0.77;0.77;;;;;;;;;;5000582;28;20017;-75
2024/03/24 06:27:35;;;;;;;0.30;0.30;;;;;;;;;;5002900;28;20034;-74
2024/03/24 06:30:01;;;;;;;0.75;0.63;;;;;;;;;;5003012;28;20487;-75
2024/03/24 06:32:26;;;;;;;0.20;0.20;;;;;;;;;;5031802;28;20042;-75
2024/03/24 06:34:52;;;;;;;1.67;1.13;;;;;;;;;;4998711;28;20053;-75
2024/03/24 06:37:17;;;;;;;2.22;2.03;;;;;;;;;;5006562;28;20025;-76
2024/03/24 06:39:43;;;;;;;3.20;2.90;;;;;;;;;;4999006;28;20037;-76
2024/03/24 06:42:08;;;;;;;1.42;1.27;;;;;;;;;;5004218;28;20073;-75
2024/03/24 06:44:37;;;;;;;2.00;1.67;;;;;;;;;;5006596;28;20568;-74
2024/03/24 06:47:03;;;;;;;2.13;1.88;;;;;;;;;;5005908;28;20038;-74
2024/03/24 06:49:28;;;;;;;1.20;1.10;;;;;;;;;;5008006;28;20029;-74
2024/03/24 06:51:54;;;;;;;1.65;1.55;;;;;;;;;;5003558;28;20025;-74
2024/03/24 06:54:19;;;;;;;0.30;0.30;;;;;;;;;;5007489;28;20120;-74
2024/03/24 06:56:45;;;;;;;0.30;0.30;;;;;;;;;;5008464;28;20538;-75
2024/03/24 06:59:11;;;;;;;2.65;2.40;;;;;;;;;;5007976;28;20060;-76
2024/03/24 07:01:37;;;;;;;0.28;0.28;;;;;;;;;;5001858;28;20557;-74
2024/03/24 07:04:02;;;;;;;2.60;2.25;;;;;;;;;;5009133;28;20052;-74
2024/03/24 07:06:28;;;;;;;1.50;1.35;;;;;;;;;;5007898;28;20476;-75
2024/03/24 07:08:53;;;;;;;1.27;1.02;;;;;;;;;;5006146;28;20046;-75
2024/03/24 07:11:18;;;;;;;0.77;0.77;;;;;;;;;;5006395;28;20368;-75
2024/03/24 07:13:44;;;;;;;2.22;1.90;;;;;;;;;;5009369;28;20239;-75
2024/03/24 07:16:10;;;;;;;1.20;0.90;;;;;;;;;;5000175;28;20026;-75
2024/03/24 07:18:35;;;;;;;1.85;1.73;;;;;;;;;;5004170;28;20060;-74
2024/03/24 07:21:02;;;;;;;1.83;1.35;;;;;;;;;;5006033;28;20493;-74
2024/03/24 07:23:29;;;;;;;7.97;3.50;;;;;;;;;;5008429;28;20045;-74
2024/03/24 07:25:55;;;;;;;7.43;2.60;;;;;;;;;;5001240;28;20777;-77
2024/03/24 07:28:21;;;;;;;6.65;0.45;;;;;;;;;;5002304;28;20022;-74
2024/03/24 07:30:47;;;;;;;1.55;1.45;;;;;;;;;;4997705;28;20682;-75
2024/03/24 07:33:13;;;;;;;4.53;2.47;;;;;;;;;;5000689;28;20049;-75
2024/03/24 07:35:39;;;;;;;1.95;1.70;;;;;;;;;;5004757;28;20042;-76
2024/03/24 07:38:04;;;;;;;3.67;2.42;;;;;;;;;;5007784;28;20041;-76
2024/03/24 07:40:30;;;;;;;2.20;1.83;;;;;;;;;;5007823;28;20024;-75
2024/03/24 07:42:55;;;;;;;1.75;1.65;;;;;;;;;;5005849;28;20057;-76
2024/03/24 07:45:21;;;;;;;2.88;2.58;;;;;;;;;;5005317;28;20049;-76
2024/03/24 07:47:46;;;;;;;8.60;3.63;;;;;;;;;;5007529;28;20037;-75
2024/03/24 07:50:12;;;;;;;2.08;1.95;;;;;;;;;;5004890;28;20201;-74
2024/03/24 07:52:37;;;;;;;4.35;3.80;;;;;;;;;;5007339;28;20104;-75
2024/03/24 07:55:03;;;;;;;1.77;1.63;;;;;;;;;;5005961;28;20466;-74
2024/03/24 07:57:28;;;;;;;1.17;1.05;;;;;;;;;;5008715;28;20470;-75
2024/03/24 07:59:53;;;;;;;0.70;0.68;;;;;;;;;;5006002;28;20057;-73
2024/03/24 08:02:19;;;;;;;2.53;1.98;;;;;;;;;;5008055;28;20034;-74
2024/03/24 08:04:44;;;;;;;3.05;2.15;;;;;;;;;;5006731;28;20522;-75
2024/03/24 08:07:11;;;;;;;3.95;2.83;;;;;;;;;;5007006;28;20070;-75
2024/03/24 08:09:36;;;;;;;1.55;0.88;;;;;;;;;;5005163;28;20044;-75
2024/03/24 08:12:02;;;;;;;2.65;2.33;;;;;;;;;;5006191;28;20042;-75
2024/03/24 08:14:27;;;;;;;3.10;2.75;;;;;;;;;;5002355;28;20065;-75
2024/03/24 08:16:57;;;;;;;10.07;2.55;;;;;;;;;;4998045;28;20123;-74
2024/03/24 08:19:22;;;;;;;2.50;2.08;;;;;;;;;;4997704;28;20026;-75
2024/03/24 08:21:49;;;;;;;2.92;2.67;;;;;;;;;;5001113;28;21152;-75
2024/03/24 08:24:16;;;;;;;2.08;1.83;;;;;;;;;;5007598;28;20038;-74
2024/03/24 08:26:43;;;;;;;2.53;2.05;;;;;;;;;;5012925;28;20040;-79
2024/03/24 08:29:08;;;;;;;2.70;2.17;;;;;;;;;;5014685;28;20042;-82
2024/03/24 08:31:33;;;;;;;2.25;2.15;;;;;;;;;;4999177;28;20402;-83
2024/03/24 08:33:59;;;;;;;2.40;2.20;;;;;;;;;;5007818;28;20038;-81
2024/03/24 08:36:24;;;;;;;1.98;1.88;;;;;;;;;;5008220;28;20120;-83
2024/03/24 08:38:50;;;;;;;2.88;2.00;;;;;;;;;;5017330;28;20129;-82
2024/03/24 08:41:15;;;;;;;3.67;3.15;;;;;;;;;;4991506;28;20034;-81
2024/03/24 08:43:40;;;;;;;1.55;1.45;;;;;;;;;;5006125;28;20033;-83
2024/03/24 08:46:06;;;;;;;3.03;2.80;;;;;;;;;;5006471;28;20132;-84
2024/03/24 08:48:31;;;;;;;1.80;1.70;;;;;;;;;;5005303;28;20042;-81
2024/03/24 08:50:56;;;;;;;6.63;1.33;;;;;;;;;;5000493;28;20068;-83
2024/03/24 08:53:22;;;;;;;2.45;1.83;;;;;;;;;;5003490;28;20053;-81
2024/03/24 08:55:47;;;;;;;3.08;2.15;;;;;;;;;;4999929;28;20065;-82
2024/03/24 08:58:13;;;;;;;2.78;1.55;;;;;;;;;;5005005;28;20060;-82
2024/03/24 09:00:40;;;;;;;2.67;2.47;;;;;;;;;;5004369;28;20409;-81
2024/03/24 09:03:05;;;;;;;3.17;1.90;;;;;;;;;;5006402;28;20068;-81
2024/03/24 09:05:31;;;;;;;1.90;1.73;;;;;;;;;;5004759;28;20057;-81
2024/03/24 09:07:57;;;;;;;1.40;1.30;;;;;;;;;;4997451;28;20038;-83
2024/03/24 09:10:22;;;;;;;1.58;1.48;;;;;;;;;;5005960;28;20049;-75
2024/03/24 09:12:48;;;;;;;2.63;2.42;;;;;;;;;;5004235;28;20765;-80
2024/03/24 09:15:14;;;;;;;4.30;3.42;;;;;;;;;;5004650;28;20045;-80
2024/03/24 09:17:39;;;;;;;4.32;3.47;;;;;;;;;;5005455;28;20064;-77
2024/03/24 09:20:06;;;;;;;3.72;3.03;;;;;;;;;;5005822;28;20048;-76
2024/03/24 09:22:35;;;;;;;9.23;4.25;;;;;;;;;;5016706;28;20076;-76
2024/03/24 09:25:02;;;;;;;3.75;3.17;;;;;;;;;;5006306;28;20064;-77
2024/03/24 09:27:29;;;;;;;2.13;1.65;;;;;;;;;;5006961;28;20560;-77
2024/03/24 09:29:54;;;;;;;3.83;3.40;;;;;;;;;;5005356;28;20049;-77
2024/03/24 09:32:20;;;;;;;0.95;0.80;;;;;;;;;;5005133;28;20133;-79
2024/03/24 09:34:50;;;;;;;7.93;4.05;;;;;;;;;;4997967;28;20034;-77
2024/03/24 09:37:21;;;;;;;1.33;1.23;;;;;;;;;;5008649;28;20099;-76
2024/03/24 09:39:47;;;;;;;4.25;2.60;;;;;;;;;;4990909;28;20058;-79
2024/03/24 09:42:13;;;;;;;3.03;2.50;;;;;;;;;;4986801;28;20055;-83
2024/03/24 09:44:48;;;;;;;6.32;4.53;;;;;;;;;;5004230;28;20042;-74
2024/03/24 09:47:17;;;;;;;2.47;2.28;;;;;;;;;;4999523;28;20133;-75
2024/03/24 09:49:45;;;;;;;2.33;1.77;;;;;;;;;;5001702;28;20129;-76
2024/03/24 09:52:12;;;;;;;3.17;2.60;;;;;;;;;;5002908;28;20456;-75
2024/03/24 09:54:48;;;;;;;1.98;1.83;;;;;;;;;;5004881;28;20105;-75
2024/03/24 09:57:15;;;;;;;2.63;2.42;;;;;;;;;;4968935;28;20050;-74
2024/03/24 09:59:57;;;;;;;2.13;2.03;;;;;;;;;;5002958;28;20050;-75
2024/03/24 10:02:42;;;;;;;7.43;2.45;;;;;;;;;;4986199;28;20091;-75
2024/03/24 10:05:36;;;;;;;2.20;1.70;;;;;;;;;;5007927;28;20071;-75
2024/03/24 10:08:05;;;;;;;2.53;2.30;;;;;;;;;;5013162;28;20049;-76
2024/03/24 10:10:32;;;;;;;6.40;2.25;;;;;;;;;;5017153;28;20029;-76
2024/03/24 10:13:10;;;;;;;2.47;1.38;;;;;;;;;;5035665;28;20457;-77
2024/03/24 10:15:35;;;;;;;0.90;0.88;;;;;;;;;;5004020;28;20050;-76
2024/03/24 10:18:06;;;;;;;3.42;3.13;;;;;;;;;;5000447;28;20532;-77
2024/03/24 10:20:32;;;;;;;2.47;2.28;;;;;;;;;;5002032;28;20038;-75
2024/03/24 10:22:58;;;;;;;2.67;2.47;;;;;;;;;;5005052;28;20034;-76
2024/03/24 10:25:24;;;;;;;1.45;1.35;;;;;;;;;;5003755;28;20092;-76
2024/03/24 10:27:53;;;;;;;4.07;3.67;;;;;;;;;;4999258;28;20469;-76
2024/03/24 10:30:19;;;;;;;1.63;1.52;;;;;;;;;;5003096;28;20200;-73
2024/03/24 10:32:45;;;;;;;2.28;1.92;;;;;;;;;;4996678;28;20046;-76
2024/03/24 10:35:10;;;;;;;3.95;2.30;;;;;;;;;;5005106;28;20048;-78
2024/03/24 10:37:36;;;;;;;3.65;2.70;;;;;;;;;;5004189;28;20455;-76
2024/03/24 10:40:03;;;;;;;5.78;3.60;;;;;;;;;;5005753;28;20406;-82
2024/03/24 10:42:31;;;;;;;4.10;3.70;;;;;;;;;;5005845;28;20092;-79
2024/03/24 10:44:58;;;;;;;3.08;2.78;;;;;;;;;;5004548;28;20072;-79
2024/03/24 10:47:23;;;;;;;3.65;3.25;;;;;;;;;;5005570;28;20042;-84
2024/03/24 10:49:49;;;;;;;4.25;2.03;;;;;;;;;;5005911;28;20096;-85
2024/03/24 10:52:18;;;;;;;2.65;2.45;;;;;;;;;;5003132;28;20020;-83
2024/03/24 10:54:46;;;;;;;3.92;3.53;;;;;;;;;;5006651;28;20410;-77
2024/03/24 10:57:12;;;;;;;1.88;1.73;;;;;;;;;;5001088;28;20142;-80
2024/03/24 10:59:37;;;;;;;5.57;3.20;;;;;;;;;;5003848;28;20054;-80
2024/03/24 11:02:03;;;;;;;1.58;1.48;;;;;;;;;;4999748;28;20041;-79
2024/03/24 11:04:29;;;;;;;2.25;2.05;;;;;;;;;;5002250;28;20057;-81
2024/03/24 11:06:55;;;;;;;1.70;1.50;;;;;;;;;;5002397;28;20037;-79
2024/03/24 11:09:20;;;;;;;1.42;1.17;;;;;;;;;;5005491;28;20394;-80
2024/03/24 11:11:46;;;;;;;2.25;0.73;;;;;;;;;;5006198;28;20557;-81
2024/03/24 11:14:12;;;;;;;5.88;1.95;;;;;;;;;;5000541;28;20649;-80
2024/03/24 11:16:38;;;;;;;5.03;3.95;;;;;;;;;;5002456;28;20034;-81
2024/03/24 11:19:10;;;;;;;1.35;1.02;;;;;;;;;;5002758;28;20049;-79
2024/03/24 11:21:39;;;;;;;2.97;2.08;;;;;;;;;;4997695;28;20038;-80
2024/03/24 11:24:09;;;;;;;1.58;1.08;;;;;;;;;;5002979;28;20057;-79
2024/03/24 11:26:34;;;;;;;1.83;1.40;;;;;;;;;;5003714;28;20037;-80
2024/03/24 11:29:00;;;;;;;3.15;2.40;;;;;;;;;;5001517;28;20157;-80
2024/03/24 11:31:28;;;;;;;1.95;1.83;;;;;;;;;;5006438;28;20038;-78
2024/03/24 11:33:59;;;;;;;1.65;1.52;;;;;;;;;;5003047;28;20112;-76
2024/03/24 11:36:34;;;;;;;4.60;3.42;;;;;;;;;;5023313;28;20040;-75
2024/03/24 11:39:03;;;;;;;1.42;1.33;;;;;;;;;;5003198;28;20033;-76
2024/03/24 11:41:28;;;;;;;2.25;2.05;;;;;;;;;;5001035;28;20176;-78
2024/03/24 11:44:01;;;;;;;9.40;2.60;;;;;;;;;;5001929;28;20129;-76
2024/03/24 11:46:27;;;;;;;4.22;2.22;;;;;;;;;;5004418;28;20061;-75
2024/03/24 11:48:53;;;;;;;1.30;1.17;;;;;;;;;;5007676;28;20784;-76
2024/03/24 11:51:26;;;;;;;4.10;1.70;;;;;;;;;;5003418;28;20034;-76
2024/03/24 11:53:52;;;;;;;6.07;2.88;;;;;;;;;;5038730;28;20054;-76
2024/03/24 11:56:19;;;;;;;2.17;1.98;;;;;;;;;;5004221;28;20054;-77
2024/03/24 11:58:52;;;;;;;0.85;0.50;;;;;;;;;;4982079;28;20133;-76
2024/03/24 12:01:22;;;;;;;1.33;1.23;;;;;;;;;;5016020;28;20049;-76
2024/03/24 12:03:54;;;;;;;2.88;2.15;;;;;;;;;;5009936;28;20104;-77
2024/03/24 12:06:20;;;;;;;1.55;1.45;;;;;;;;;;5004257;28;20161;-80
2024/03/24 12:08:46;;;;;;;0.40;0.40;;;;;;;;;;5006167;28;20076;-81
2024/03/24 12:11:14;;;;;;;2.30;1.50;;;;;;;;;;5004258;28;20051;-78
2024/03/24 12:13:40;;;;;;;1.35;1.25;;;;;;;;;;5004662;28;20088;-82
2024/03/24 12:16:05;;;;;;;5.32;4.47;;;;;;;;;;5004904;28;20431;-81
2024/03/24 12:18:31;;;;;;;1.40;1.02;;;;;;;;;;5004401;28;20042;-81
2024/03/24 12:20:59;;;;;;;1.08;1.05;;;;;;;;;;5005812;28;20038;-82
2024/03/24 12:23:25;;;;;;;3.00;2.65;;;;;;;;;;5004732;28;20060;-81
2024/03/24 12:25:53;;;;;;;0.80;0.77;;;;;;;;;;5005101;28;20042;-81
2024/03/24 12:28:20;;;;;;;1.40;0.93;;;;;;;;;;5019358;28;20053;-84
2024/03/24 12:30:53;;;;;;;1.23;1.13;;;;;;;;;;5015103;28;20064;-86
2024/03/24 12:33:20;;;;;;;0.68;0.63;;;;;;;;;;5006287;28;20084;-84
2024/03/24 12:35:46;;;;;;;0.60;0.60;;;;;;;;;;5006882;28;20558;-86
2024/03/24 12:38:12;;;;;;;0.85;0.85;;;;;;;;;;5002976;28;20117;-85
2024/03/24 12:40:38;;;;;;;1.02;0.93;;;;;;;;;;5004437;28;20108;-78
2024/03/24 12:43:13;;;;;;;1.83;1.48;;;;;;;;;;5002493;28;20500;-82
2024/03/24 12:45:49;;;;;;;3.55;2.05;;;;;;;;;;5006357;28;20038;-79
2024/03/24 12:48:16;;;;;;;1.15;0.82;;;;;;;;;;5001300;28;20062;-80
2024/03/24 12:50:42;;;;;;;4.53;1.17;;;;;;;;;;5002519;28;20477;-86
2024/03/24 12:53:07;;;;;;;0.88;0.73;;;;;;;;;;5004580;28;20081;-85
2024/03/24 12:55:34;;;;;;;1.58;1.38;;;;;;;;;;4994753;28;20320;-88
2024/03/24 12:58:02;;;;;;;1.50;1.20;;;;;;;;;;4996819;28;20030;-71
2024/03/24 13:00:27;;;;;;;2.63;1.58;;;;;;;;;;5013959;28;20057;-69
2024/03/24 13:02:54;;;;;;;0.85;0.77;;;;;;;;;;5021954;28;20034;-71
2024/03/24 13:05:19;;;;;;;3.40;3.10;;;;;;;;;;5025160;28;20091;-68
2024/03/24 13:07:45;;;;;;;1.10;1.00;;;;;;;;;;5025021;28;20453;-70
2024/03/24 13:10:12;;;;;;;1.60;1.50;;;;;;;;;;5025444;28;20140;-68
2024/03/24 13:12:37;;;;;;;1.20;1.10;;;;;;;;;;5017345;28;20045;-69
2024/03/24 13:15:03;;;;;;;3.15;1.48;;;;;;;;;;5024574;28;20045;-71
2024/03/24 13:17:31;;;;;;;1.25;0.80;;;;;;;;;;5024626;28;20038;-71
2024/03/24 13:20:04;;;;;;;0.82;0.80;;;;;;;;;;5022028;28;20709;-69
2024/03/24 13:22:30;;;;;;;1.75;1.63;;;;;;;;;;5026126;28;20453;-69
2024/03/24 13:24:58;;;;;;;1.80;1.67;;;;;;;;;;5026333;28;20075;-69
2024/03/24 13:27:27;;;;;;;2.10;1.80;;;;;;;;;;5006915;28;20041;-70
2024/03/24 13:29:53;;;;;;;0.82;0.65;;;;;;;;;;5008865;28;20128;-68
2024/03/24 13:32:18;;;;;;;0.73;0.70;;;;;;;;;;5006078;28;20133;-69
2024/03/24 13:34:44;;;;;;;1.05;0.95;;;;;;;;;;5006042;28;20627;-70
2024/03/24 13:37:16;;;;;;;1.35;1.25;;;;;;;;;;5025940;28;20096;-68
2024/03/24 13:40:00;;;;;;;1.35;0.98;;;;;;;;;;5002891;28;20034;-71
2024/03/24 13:42:45;;;;;;;1.52;1.42;;;;;;;;;;5010844;28;20046;-71
2024/03/24 13:45:10;;;;;;;3.40;1.75;;;;;;;;;;5019992;28;20046;-69
2024/03/24 13:47:37;;;;;;;0.65;0.65;;;;;;;;;;5014681;28;20030;-67
2024/03/24 13:50:03;;;;;;;0.55;0.55;;;;;;;;;;5018344;28;20112;-71
2024/03/24 13:52:30;;;;;;;0.40;0.40;;;;;;;;;;5020518;28;20107;-70
2024/03/24 13:54:56;;;;;;;1.63;1.38;;;;;;;;;;5016666;28;20697;-79
2024/03/24 13:57:22;;;;;;;0.40;0.40;;;;;;;;;;5020462;28;20135;-82
2024/03/24 13:59:47;;;;;;;1.65;1.17;;;;;;;;;;5024538;28;20520;-79
2024/03/24 14:02:15;;;;;;;1.00;0.73;;;;;;;;;;5017200;28;20108;-81
2024/03/24 14:04:40;;;;;;;0.30;0.30;;;;;;;;;;5018271;28;20103;-78
2024/03/24 14:07:05;;;;;;;0.95;0.73;;;;;;;;;;5024426;28;20049;-76
2024/03/24 14:09:31;;;;;;;1.90;1.30;;;;;;;;;;5020223;28;20037;-78
2024/03/24 14:11:58;;;;;;;0.55;0.55;;;;;;;;;;5012272;28;20077;-76
2024/03/24 14:14:36;;;;;;;2.15;0.75;;;;;;;;;;5019956;28;20068;-76
2024/03/24 14:17:16;;;;;;;1.70;1.35;;;;;;;;;;5017860;28;20044;-78
2024/03/24 14:19:48;;;;;;;0.30;0.30;;;;;;;;;;5017049;28;20128;-78
2024/03/24 14:22:19;;;;;;;1.00;1.00;;;;;;;;;;5007031;28;20037;-78
2024/03/24 14:24:54;;;;;;;0.60;0.60;;;;;;;;;;5017488;28;20045;-76
2024/03/24 14:27:19;;;;;;;1.40;1.27;;;;;;;;;;5004542;28;20448;-79
2024/03/24 14:29:44;;;;;;;0.93;0.93;;;;;;;;;;5007152;28;20017;-79
2024/03/24 14:32:10;;;;;;;2.10;1.20;;;;;;;;;;5023739;28;20018;-78
2024/03/24 14:34:36;;;;;;;1.40;1.00;;;;;;;;;;5021395;28;20103;-78
2024/03/24 14:37:01;;;;;;;0.93;0.88;;;;;;;;;;5006816;28;20046;-78
2024/03/24 14:39:40;;;;;;;0.95;0.75;;;;;;;;;;5022544;28;20064;-77